createdAt,value
2018-10-11T00:02:09.316Z,99.90
2018-10-11T00:04:38.650Z,99.90
2018-10-11T00:07:07.640Z,99.90
2018-10-11T00:09:36.875Z,99.90
2018-10-11T00:12:06.433Z,99.90
2018-10-11T00:14:35.129Z,99.90
2018-10-11T00:17:04.783Z,99.90
2018-10-11T00:19:33.443Z,99.90
2018-10-11T00:22:04.185Z,99.90
2018-10-11T00:24:33.561Z,99.90
2018-10-11T00:27:03.020Z,99.90
2018-10-11T00:29:32.743Z,99.90
2018-10-11T00:32:01.518Z,99.90
2018-10-11T00:34:30.240Z,99.90
2018-10-11T00:36:58.893Z,99.90
2018-10-11T00:39:30.626Z,99.90
2018-10-11T00:42:00.902Z,99.90
2018-10-11T00:44:29.680Z,99.90
2018-10-11T00:46:58.380Z,99.90
2018-10-11T00:49:27.149Z,99.90
2018-10-11T00:51:56.705Z,99.90
2018-10-11T00:54:25.428Z,99.90
2018-10-11T00:56:54.136Z,99.90
2018-10-11T00:59:22.919Z,99.90
2018-10-11T01:01:52.781Z,99.90
2018-10-11T01:04:23.943Z,99.90
2018-10-11T01:06:53.052Z,99.90
2018-10-11T01:09:21.947Z,99.90
2018-10-11T01:11:50.589Z,99.90
2018-10-11T01:14:19.327Z,99.90
2018-10-11T01:16:48.008Z,99.90
2018-10-11T01:19:16.780Z,99.90
2018-10-11T01:21:46.144Z,99.90
2018-10-11T01:24:16.814Z,99.90
2018-10-11T01:26:46.683Z,99.90
2018-10-11T01:29:15.426Z,99.90
2018-10-11T01:31:44.821Z,99.90
2018-10-11T01:34:13.630Z,99.90
2018-10-11T01:36:42.739Z,99.90
2018-10-11T01:39:11.516Z,99.90
2018-10-11T01:41:40.398Z,99.90
2018-10-11T01:44:10.313Z,99.90
2018-10-11T01:46:39.047Z,99.90
2018-10-11T01:49:07.735Z,99.90
2018-10-11T01:51:36.469Z,99.90
2018-10-11T01:54:05.159Z,99.90
2018-10-11T01:56:33.937Z,99.90
2018-10-11T01:59:02.576Z,99.90
2018-10-11T02:01:32.039Z,99.90
2018-10-11T02:04:01.672Z,99.90
2018-10-11T02:06:30.432Z,99.90
2018-10-11T02:09:00.092Z,99.90
2018-10-11T02:11:28.854Z,99.90
2018-10-11T02:13:57.799Z,99.90
2018-10-11T02:16:26.574Z,99.90
2018-10-11T02:18:55.264Z,99.90
2018-10-11T02:21:24.594Z,99.90
2018-10-11T02:23:53.280Z,99.90
2018-10-11T02:26:22.143Z,99.90
2018-10-11T02:28:51.422Z,99.90
2018-10-11T02:31:20.159Z,99.90
2018-10-11T02:33:48.901Z,99.90
2018-10-11T02:36:19.391Z,99.90
2018-10-11T02:38:49.558Z,99.90
2018-10-11T02:41:19.166Z,99.90
2018-10-11T02:43:47.865Z,99.90
2018-10-11T02:46:16.528Z,99.90
2018-10-11T02:48:45.393Z,99.90
2018-10-11T02:51:14.220Z,99.90
2018-10-11T02:53:42.905Z,99.90
2018-10-11T02:56:11.944Z,99.90
2018-10-11T02:58:51.639Z,99.90
2018-10-11T03:01:22.468Z,99.90
2018-10-11T03:03:54.432Z,99.90
2018-10-11T03:06:23.240Z,99.90
2018-10-11T03:08:51.984Z,99.90
2018-10-11T03:11:21.895Z,99.90
2018-10-11T03:13:50.607Z,99.90
2018-10-11T03:16:19.374Z,99.90
2018-10-11T03:18:50.046Z,99.90
2018-10-11T03:21:20.454Z,99.90
2018-10-11T03:23:49.356Z,99.90
2018-10-11T03:26:18.177Z,99.90
2018-10-11T03:28:46.909Z,99.90
2018-10-11T03:31:15.792Z,99.90
2018-10-11T03:33:44.673Z,99.90
2018-10-11T03:36:14.132Z,99.90
2018-10-11T03:38:43.719Z,99.90
2018-10-11T03:41:12.453Z,99.90
2018-10-11T03:43:41.247Z,99.90
2018-10-11T03:46:10.492Z,99.90
2018-10-11T03:48:39.500Z,99.90
2018-10-11T03:51:08.195Z,99.90
2018-10-11T03:53:36.854Z,99.90
2018-10-11T03:56:07.097Z,99.90
2018-10-11T03:58:36.007Z,99.90
2018-10-11T04:01:05.438Z,99.90
2018-10-11T04:03:34.091Z,99.90
2018-10-11T04:06:02.806Z,99.90
2018-10-11T04:08:32.322Z,99.90
2018-10-11T04:11:01.456Z,99.90
2018-10-11T04:13:31.715Z,99.90
2018-10-11T04:16:00.409Z,99.90
2018-10-11T04:18:29.086Z,99.90
2018-10-11T04:20:58.515Z,99.90
2018-10-11T04:23:31.192Z,99.90
2018-10-11T04:26:00.745Z,99.90
2018-10-11T04:28:29.942Z,99.90
2018-10-11T04:31:00.422Z,99.90
2018-10-11T04:33:29.890Z,99.90
2018-10-11T04:35:59.053Z,99.90
2018-10-11T04:38:28.292Z,99.90
2018-10-11T04:40:57.356Z,99.90
2018-10-11T04:43:27.008Z,99.90
2018-10-11T04:45:55.656Z,99.90
2018-10-11T04:48:24.954Z,99.90
2018-10-11T04:50:57.376Z,99.90
2018-10-11T04:53:31.522Z,99.90
2018-10-11T04:56:00.212Z,99.90
2018-10-11T04:58:29.460Z,99.90
2018-10-11T05:00:58.256Z,99.90
2018-10-11T05:03:26.961Z,99.90
2018-10-11T05:05:55.716Z,99.90
2018-10-11T05:08:24.460Z,99.90
2018-10-11T05:10:53.121Z,99.90
2018-10-11T05:13:28.931Z,99.90
2018-10-11T05:15:57.628Z,99.90
2018-10-11T05:18:26.356Z,99.90
2018-10-11T05:20:54.991Z,99.90
2018-10-11T05:23:23.685Z,99.90
2018-10-11T05:25:52.641Z,99.90
2018-10-11T05:28:21.371Z,99.90
2018-10-11T05:30:55.235Z,99.90
2018-10-11T05:33:24.090Z,99.90
2018-10-11T05:35:52.715Z,99.90
2018-10-11T05:38:21.471Z,99.90
2018-10-11T05:40:50.079Z,99.90
2018-10-11T05:43:18.769Z,99.90
2018-10-11T05:45:52.177Z,99.90
2018-10-11T05:48:20.948Z,99.90
2018-10-11T05:50:49.998Z,99.90
2018-10-11T05:53:18.709Z,99.90
2018-10-11T05:55:47.520Z,99.90
2018-10-11T05:58:17.346Z,99.90
2018-10-11T06:00:46.055Z,99.90
2018-10-11T06:03:14.747Z,99.90
2018-10-11T06:05:43.458Z,99.90
2018-10-11T06:08:12.228Z,99.90
2018-10-11T06:10:42.295Z,99.90
2018-10-11T06:13:11.589Z,99.90
2018-10-11T06:15:40.599Z,99.90
2018-10-11T06:18:09.681Z,99.90
2018-10-11T06:20:38.481Z,99.90
2018-10-11T06:23:07.282Z,99.90
2018-10-11T06:25:35.934Z,99.90
2018-10-11T06:28:04.647Z,99.90
2018-10-11T06:30:34.413Z,99.90
2018-10-11T06:33:03.130Z,99.90
2018-10-11T06:35:32.493Z,99.90
2018-10-11T06:38:01.663Z,99.90
2018-10-11T06:40:30.354Z,99.90
2018-10-11T06:42:59.098Z,99.90
2018-10-11T06:45:27.776Z,99.90
2018-10-11T06:47:58.426Z,99.90
2018-10-11T06:50:27.208Z,99.90
2018-10-11T06:52:55.961Z,99.90
2018-10-11T06:55:24.609Z,99.90
2018-10-11T06:57:53.228Z,99.90
2018-10-11T07:00:21.878Z,99.90
2018-10-11T07:02:50.529Z,99.90
2018-10-11T07:05:19.178Z,99.90
2018-10-11T07:07:47.884Z,99.90
2018-10-11T07:10:17.283Z,99.90
2018-10-11T07:12:46.054Z,99.90
2018-10-11T07:15:14.685Z,99.90
2018-10-11T07:17:43.290Z,99.90
2018-10-11T07:20:11.895Z,99.90
2018-10-11T07:22:40.608Z,99.90
2018-10-11T07:25:09.297Z,99.90
2018-10-11T07:27:37.871Z,99.90
2018-10-11T07:30:06.865Z,81.20
2018-10-11T07:32:35.515Z,60.90
2018-10-11T07:35:04.304Z,54.30
2018-10-11T07:37:32.925Z,49.90
2018-10-11T07:40:01.519Z,45.00
2018-10-11T07:42:30.162Z,41.60
2018-10-11T07:44:58.836Z,38.40
2018-10-11T07:47:27.487Z,36.30
2018-10-11T07:49:56.138Z,34.90
2018-10-11T07:52:24.705Z,33.40
2018-10-11T07:54:53.338Z,34.80
2018-10-11T07:57:22.011Z,41.00
2018-10-11T07:59:50.679Z,47.30
2018-10-11T08:02:19.289Z,48.80
2018-10-11T08:04:47.931Z,44.20
2018-10-11T08:07:16.626Z,37.80
2018-10-11T08:09:45.325Z,34.00
2018-10-11T08:12:14.006Z,31.30
2018-10-11T08:14:42.622Z,29.90
2018-10-11T08:17:11.638Z,28.80
2018-10-11T08:19:39.950Z,28.50
2018-10-11T08:22:08.614Z,28.30
2018-10-11T08:24:37.272Z,27.40
2018-10-11T08:27:05.954Z,26.30
2018-10-11T08:29:34.522Z,26.50
2018-10-11T08:32:03.134Z,26.30
2018-10-11T08:34:31.786Z,26.00
2018-10-11T08:37:00.391Z,26.00
2018-10-11T08:39:29.001Z,26.10
2018-10-11T08:41:57.582Z,25.90
2018-10-11T08:44:26.189Z,26.00
2018-10-11T08:46:54.847Z,25.60
2018-10-11T08:49:23.508Z,25.00
2018-10-11T08:51:52.111Z,25.10
2018-10-11T08:54:26.082Z,24.50
2018-10-11T08:56:54.759Z,24.00
2018-10-11T08:59:23.463Z,24.20
2018-10-11T09:01:52.058Z,24.20
2018-10-11T09:04:20.711Z,23.70
2018-10-11T09:06:49.338Z,22.60
2018-10-11T09:09:17.982Z,22.30
2018-10-11T09:11:46.638Z,22.40
2018-10-11T09:14:15.209Z,22.60
2018-10-11T09:16:43.814Z,22.30
2018-10-11T09:19:12.402Z,21.90
2018-10-11T09:21:41.132Z,21.80
2018-10-11T09:24:09.793Z,21.30
2018-10-11T09:26:38.433Z,21.40
2018-10-11T09:29:07.073Z,20.70
2018-10-11T09:31:35.678Z,20.00
2018-10-11T09:34:04.323Z,20.10
2018-10-11T09:36:33.044Z,20.20
2018-10-11T09:39:01.654Z,20.00
2018-10-11T09:41:30.292Z,19.60
2018-10-11T09:43:58.926Z,19.30
2018-10-11T09:46:27.522Z,19.10
2018-10-11T09:48:56.206Z,18.50
2018-10-11T09:51:24.739Z,18.90
2018-10-11T09:53:53.378Z,19.30
2018-10-11T09:56:22.016Z,18.70
2018-10-11T09:58:50.646Z,18.10
2018-10-11T10:01:24.655Z,18.10
2018-10-11T10:03:53.427Z,18.30
2018-10-11T10:06:22.038Z,18.40
2018-10-11T10:08:50.661Z,17.80
2018-10-11T10:11:19.298Z,17.60
2018-10-11T10:13:47.926Z,17.60
2018-10-11T10:16:16.569Z,17.40
2018-10-11T10:18:46.109Z,17.00
2018-10-11T10:21:14.814Z,17.10
2018-10-11T10:23:43.402Z,16.70
2018-10-11T10:26:12.048Z,16.20
2018-10-11T10:28:40.667Z,16.40
2018-10-11T10:31:09.348Z,17.00
2018-10-11T10:33:37.994Z,16.70
2018-10-11T10:36:06.665Z,16.30
2018-10-11T10:38:35.284Z,16.20
2018-10-11T10:41:03.934Z,15.40
2018-10-11T10:43:32.541Z,15.30
2018-10-11T10:46:01.270Z,16.30
2018-10-11T10:48:29.894Z,16.20
2018-10-11T10:50:58.593Z,15.60
2018-10-11T10:53:27.203Z,15.90
2018-10-11T10:55:55.822Z,15.30
2018-10-11T10:58:24.509Z,16.20
2018-10-11T11:00:53.108Z,16.60
2018-10-11T11:03:21.751Z,16.40
2018-10-11T11:05:50.377Z,16.10
2018-10-11T11:08:18.990Z,16.30
2018-10-11T11:10:47.646Z,16.20
2018-10-11T11:13:16.287Z,16.40
2018-10-11T11:15:44.897Z,16.50
2018-10-11T11:18:13.834Z,17.60
2018-10-11T11:20:42.462Z,17.90
2018-10-11T11:23:11.096Z,18.00
2018-10-11T11:25:39.672Z,17.20
2018-10-11T11:28:08.278Z,17.50
2018-10-11T11:30:36.915Z,18.90
2018-10-11T11:33:05.538Z,17.90
2018-10-11T11:35:34.179Z,17.90
2018-10-11T11:38:02.724Z,17.90
2018-10-11T11:40:31.364Z,18.20
2018-10-11T11:42:59.990Z,18.90
2018-10-11T11:45:28.563Z,18.40
2018-10-11T11:47:57.231Z,18.00
2018-10-11T11:50:25.903Z,17.50
2018-10-11T11:52:54.530Z,18.10
2018-10-11T11:55:23.172Z,20.70
2018-10-11T11:57:51.866Z,20.90
2018-10-11T12:00:22.074Z,20.80
2018-10-11T12:02:50.779Z,21.20
2018-10-11T12:05:19.326Z,22.80
2018-10-11T12:07:47.946Z,22.80
2018-10-11T12:10:16.625Z,20.90
2018-10-11T12:13:06.743Z,21.30
2018-10-11T12:15:35.741Z,21.20
2018-10-11T12:18:05.074Z,20.90
2018-10-11T12:20:34.875Z,21.80
2018-10-11T12:23:04.674Z,21.60
2018-10-11T12:25:33.657Z,21.20
2018-10-11T12:28:02.350Z,22.30
2018-10-11T12:30:30.981Z,23.40
2018-10-11T12:32:59.652Z,24.30
2018-10-11T12:35:28.658Z,24.20
2018-10-11T12:37:57.306Z,23.90
2018-10-11T12:40:25.938Z,25.80
2018-10-11T12:42:54.584Z,25.70
2018-10-11T12:45:23.272Z,25.30
2018-10-11T12:47:51.841Z,23.30
2018-10-11T12:50:20.475Z,23.30
2018-10-11T12:52:49.169Z,24.50
2018-10-11T12:55:17.791Z,26.50
2018-10-11T12:57:46.449Z,28.60
2018-10-11T13:00:16.154Z,30.20
2018-10-11T13:02:44.818Z,31.30
2018-10-11T13:05:13.489Z,32.00
2018-10-11T13:07:42.462Z,31.60
2018-10-11T13:10:11.145Z,32.00
2018-10-11T13:12:39.783Z,32.00
2018-10-11T13:15:08.771Z,31.70
2018-10-11T13:17:42.815Z,31.50
2018-10-11T13:20:06.450Z,33.10
2018-10-11T13:22:35.114Z,34.50
2018-10-11T13:25:03.803Z,35.90
2018-10-11T13:27:32.492Z,36.80
2018-10-11T13:30:01.386Z,37.00
2018-10-11T13:32:30.031Z,37.30
2018-10-11T13:34:58.690Z,38.90
2018-10-11T13:37:27.334Z,39.00
2018-10-11T13:39:57.690Z,40.00
2018-10-11T13:42:24.649Z,40.90
2018-10-11T13:44:53.411Z,40.60
2018-10-11T13:47:22.131Z,41.50
2018-10-11T13:49:50.708Z,41.50
2018-10-11T13:52:22.350Z,41.20
2018-10-11T13:54:48.027Z,41.20
2018-10-11T13:57:17.017Z,41.40
2018-10-11T13:59:45.636Z,40.30
2018-10-11T14:02:14.296Z,40.20
2018-10-11T14:04:43.139Z,39.70
2018-10-11T14:07:11.708Z,39.70
2018-10-11T14:09:40.379Z,40.70
2018-10-11T14:12:09.056Z,41.00
2018-10-11T14:14:37.599Z,40.00
2018-10-11T14:17:06.169Z,39.80
2018-10-11T14:19:34.943Z,38.60
2018-10-11T14:22:03.488Z,38.40
2018-10-11T14:24:32.033Z,39.80
2018-10-11T14:27:00.689Z,41.50
2018-10-11T14:29:30.015Z,41.40
2018-10-11T14:31:58.726Z,42.30
2018-10-11T14:34:27.375Z,42.90
2018-10-11T14:36:56.159Z,44.10
2018-10-11T14:39:24.727Z,44.90
2018-10-11T14:41:53.363Z,44.60
2018-10-11T14:44:22.093Z,45.90
2018-10-11T14:46:50.768Z,45.70
2018-10-11T14:49:19.428Z,45.90
2018-10-11T14:51:48.783Z,45.70
2018-10-11T14:54:16.739Z,46.40
2018-10-11T14:56:45.374Z,45.80
2018-10-11T14:59:14.045Z,45.70
2018-10-11T15:01:42.644Z,47.00
2018-10-11T15:04:12.365Z,47.50
2018-10-11T15:06:42.032Z,47.40
2018-10-11T15:09:11.221Z,48.90
2018-10-11T15:11:40.081Z,50.20
2018-10-11T15:14:08.794Z,51.90
2018-10-11T15:16:37.507Z,52.70
2018-10-11T15:19:06.199Z,53.30
2018-10-11T15:21:34.881Z,53.10
2018-10-11T15:24:04.372Z,53.20
2018-10-11T15:26:33.505Z,53.20
2018-10-11T15:29:02.137Z,53.60
2018-10-11T15:31:30.817Z,54.50
2018-10-11T15:33:59.569Z,54.10
2018-10-11T15:36:28.359Z,54.10
2018-10-11T15:38:57.050Z,55.30
2018-10-11T15:41:25.742Z,56.50
2018-10-11T15:43:54.429Z,57.30
2018-10-11T15:46:23.103Z,57.80
2018-10-11T15:48:51.805Z,58.80
2018-10-11T15:51:20.502Z,59.80
2018-10-11T15:53:49.778Z,61.30
2018-10-11T15:56:18.440Z,62.50
2018-10-11T15:58:47.813Z,64.80
2018-10-11T16:01:16.478Z,66.50
2018-10-11T16:03:45.152Z,68.20
2018-10-11T16:06:13.824Z,71.10
2018-10-11T16:08:42.486Z,72.10
2018-10-11T16:11:11.204Z,73.60
2018-10-11T16:13:39.923Z,73.90
2018-10-11T16:16:08.636Z,75.60
2018-10-11T16:18:37.377Z,75.90
2018-10-11T16:21:06.271Z,76.20
2018-10-11T16:23:35.311Z,76.70
2018-10-11T16:26:03.987Z,75.10
2018-10-11T16:28:32.733Z,76.10
2018-10-11T16:31:01.367Z,76.40
2018-10-11T16:33:30.025Z,77.50
2018-10-11T16:35:59.614Z,79.40
2018-10-11T16:38:28.271Z,80.90
2018-10-11T16:40:57.666Z,80.40
2018-10-11T16:43:26.963Z,81.10
2018-10-11T16:45:55.638Z,81.20
2018-10-11T16:48:24.994Z,81.50
2018-10-11T16:50:53.667Z,83.20
2018-10-11T16:53:22.278Z,86.90
2018-10-11T16:55:50.914Z,90.50
2018-10-11T16:58:19.539Z,93.40
2018-10-11T17:00:48.337Z,93.70
2018-10-11T17:03:20.075Z,92.80
2018-10-11T17:05:48.723Z,92.80
2018-10-11T17:08:17.431Z,92.90
2018-10-11T17:10:46.637Z,92.50
2018-10-11T17:13:15.230Z,92.10
2018-10-11T17:15:43.726Z,92.30
2018-10-11T17:18:12.289Z,94.20
2018-10-11T17:20:40.916Z,93.70
2018-10-11T17:23:09.511Z,93.50
2018-10-11T17:25:38.451Z,93.60
2018-10-11T17:28:07.068Z,93.90
2018-10-11T17:30:35.695Z,93.40
2018-10-11T17:33:04.355Z,97.10
2018-10-11T17:35:33.027Z,96.80
2018-10-11T17:38:02.453Z,99.90
2018-10-11T17:40:31.095Z,99.90
2018-10-11T17:42:59.755Z,99.90
2018-10-11T17:45:28.384Z,99.90
2018-10-11T17:47:57.067Z,99.90
2018-10-11T17:50:25.788Z,99.90
2018-10-11T17:52:54.399Z,99.90
2018-10-11T17:55:24.703Z,99.90
2018-10-11T17:57:53.291Z,99.90
2018-10-11T18:00:22.071Z,99.90
2018-10-11T18:02:50.735Z,99.90
2018-10-11T18:05:19.327Z,99.90
2018-10-11T18:07:47.928Z,99.90
2018-10-11T18:10:40.011Z,99.90
2018-10-11T18:13:09.963Z,99.90
2018-10-11T18:15:38.909Z,99.90
2018-10-11T18:18:07.738Z,99.90
2018-10-11T18:20:39.210Z,99.90
2018-10-11T18:23:08.530Z,99.90
2018-10-11T18:25:38.042Z,99.90
2018-10-11T18:28:06.621Z,99.90
2018-10-11T18:30:40.238Z,99.90
2018-10-11T18:33:08.800Z,99.90
2018-10-11T18:35:37.691Z,99.90
2018-10-11T18:38:06.261Z,99.90
2018-10-11T18:40:34.890Z,99.90
2018-10-11T18:43:03.522Z,99.90
2018-10-11T18:45:32.874Z,99.90
2018-10-11T18:48:01.497Z,99.90
2018-10-11T18:50:33.621Z,99.90
2018-10-11T18:53:03.203Z,99.90
2018-10-11T18:55:32.440Z,99.90
2018-10-11T18:58:01.226Z,99.90
2018-10-11T19:00:30.150Z,99.90
2018-10-11T19:03:00.144Z,99.90
2018-10-11T19:05:33.060Z,99.90
2018-10-11T19:08:04.198Z,99.90
2018-10-11T19:10:34.027Z,99.90
2018-10-11T19:13:08.162Z,99.90
2018-10-11T19:15:37.126Z,99.90
2018-10-11T19:18:06.870Z,99.90
2018-10-11T19:20:35.681Z,99.90
2018-10-11T19:23:09.971Z,99.90
2018-10-11T19:25:38.700Z,99.90
2018-10-11T19:28:07.670Z,99.90
2018-10-11T19:30:36.302Z,99.90
2018-10-11T19:33:07.615Z,99.90
2018-10-11T19:35:36.336Z,99.90
2018-10-11T19:38:06.736Z,99.90
2018-10-11T19:40:35.348Z,99.90
2018-10-11T19:43:04.162Z,99.90
2018-10-11T19:45:33.510Z,99.90
2018-10-11T19:48:05.053Z,99.90
2018-10-11T19:50:33.702Z,99.90
2018-10-11T19:53:04.689Z,99.90
2018-10-11T19:55:33.602Z,99.90
2018-10-11T19:58:02.225Z,99.90
2018-10-11T20:00:31.547Z,99.90
2018-10-11T20:03:00.172Z,99.90
2018-10-11T20:05:29.065Z,99.90
2018-10-11T20:07:57.949Z,99.90
2018-10-11T20:10:26.454Z,99.90
2018-10-11T20:12:56.414Z,99.90
2018-10-11T20:15:25.047Z,99.90
2018-10-11T20:17:53.796Z,99.90
2018-10-11T20:20:22.518Z,99.90
2018-10-11T20:22:52.300Z,99.90
2018-10-11T20:25:24.010Z,99.90
2018-10-11T20:27:52.684Z,99.90
2018-10-11T20:30:21.257Z,99.90
2018-10-11T20:32:49.915Z,99.90
2018-10-11T20:35:18.559Z,99.90
2018-10-11T20:37:47.432Z,99.90
2018-10-11T20:40:16.845Z,99.90
2018-10-11T20:42:47.436Z,99.90
2018-10-11T20:45:17.979Z,99.90
2018-10-11T20:47:46.724Z,99.90
2018-10-11T20:50:15.584Z,99.90
2018-10-11T20:52:44.178Z,99.90
2018-10-11T20:55:12.826Z,99.90
2018-10-11T20:57:41.579Z,99.90
2018-10-11T21:00:11.514Z,99.90
2018-10-11T21:02:40.163Z,99.90
2018-10-11T21:05:08.961Z,99.90
2018-10-11T21:07:37.608Z,99.90
2018-10-11T21:10:06.681Z,99.90
2018-10-11T21:12:35.403Z,99.90
2018-10-11T21:15:05.206Z,99.90
2018-10-11T21:17:33.950Z,99.90
2018-10-11T21:20:02.632Z,99.90
2018-10-11T21:22:31.231Z,99.90
2018-10-11T21:25:00.144Z,99.90
2018-10-11T21:27:28.724Z,99.90
2018-10-11T21:29:57.663Z,99.90
2018-10-11T21:32:26.512Z,99.90
2018-10-11T21:34:55.541Z,99.90
2018-10-11T21:37:24.146Z,99.90
2018-10-11T21:39:52.866Z,99.90
2018-10-11T21:42:21.537Z,99.90
2018-10-11T21:44:50.888Z,99.90
2018-10-11T21:47:19.991Z,99.90
2018-10-11T21:49:49.814Z,99.90
2018-10-11T21:52:18.433Z,99.90
2018-10-11T21:54:47.159Z,99.90
2018-10-11T21:57:15.798Z,99.90
2018-10-11T21:59:44.537Z,99.90
2018-10-11T22:02:13.140Z,99.90
2018-10-11T22:04:41.838Z,99.90
2018-10-11T22:07:10.598Z,99.90
2018-10-11T22:09:39.239Z,99.90
2018-10-11T22:12:08.318Z,99.90
2018-10-11T22:14:37.085Z,99.90
2018-10-11T22:17:05.699Z,99.90
2018-10-11T22:19:34.298Z,99.90
2018-10-11T22:22:02.902Z,99.90
2018-10-11T22:24:31.573Z,99.90
2018-10-11T22:27:02.254Z,99.90
2018-10-11T22:29:31.083Z,99.90
2018-10-11T22:31:59.734Z,99.90
2018-10-11T22:34:28.361Z,99.90
2018-10-11T22:36:57.057Z,99.90
2018-10-11T22:39:25.655Z,99.90
2018-10-11T22:41:54.306Z,99.90
2018-10-11T22:44:22.902Z,99.90
2018-10-11T22:46:51.568Z,99.90
2018-10-11T22:49:20.147Z,99.90
2018-10-11T22:51:48.757Z,99.90
2018-10-11T22:54:17.406Z,99.90
2018-10-11T22:56:46.237Z,99.90
2018-10-11T22:59:14.898Z,99.90
2018-10-11T23:01:43.507Z,99.90
2018-10-11T23:04:12.158Z,99.90
2018-10-11T23:06:40.802Z,99.90
2018-10-11T23:09:10.039Z,99.90
2018-10-11T23:11:38.726Z,99.90
2018-10-11T23:14:07.472Z,99.90
2018-10-11T23:16:36.112Z,99.90
2018-10-11T23:19:04.810Z,99.90
2018-10-11T23:21:33.511Z,99.90
2018-10-11T23:24:02.141Z,99.90
2018-10-11T23:26:30.787Z,99.90
2018-10-11T23:28:59.585Z,99.90
2018-10-11T23:31:28.241Z,99.90
2018-10-11T23:33:56.939Z,99.90
2018-10-11T23:36:25.630Z,99.90
2018-10-11T23:38:54.274Z,99.90
2018-10-11T23:41:22.875Z,99.90
2018-10-11T23:43:51.451Z,99.90
2018-10-11T23:46:20.033Z,99.90
2018-10-11T23:48:48.732Z,99.90
2018-10-11T23:51:17.364Z,99.90
2018-10-11T23:53:46.014Z,99.90
2018-10-11T23:56:14.711Z,99.90
2018-10-11T23:58:43.389Z,99.90
